Viking Amber — 9V7985 — position and weather

sailwx.info

Track history (hours):
 
Tides and Currents Weather Stations Pressure Air Temp Water Temp Dewpoint Dewpoint Depression Visibility Wind Speed Wind Dir Waves Ship Positions

Viking Amber

Last reported at 2014-Jul-25 05:08 UTC. Time now 2014-Jul-26 11:13 UTC.
Position N 33°48' E 130°14'.

Length 167 m; draft 7.1 m.

Type: Other ship. MMSI: 563255000.

Date/timePositionNaut miles runAvg speedWind from/ knotsBaromVisibWave heightAir tempDewpointWater temp
2014-Jul-25 05:08N 33°48' E 130°14'813.6
2014-Jul-25 04:34N 33°40' E 130°16'7 6.9
2014-Jul-25 03:32N 33°40' E 130°25'0 0.0
2014-Jul-25 02:32N 33°40' E 130°25'0 0.0
2014-Jul-25 01:32N 33°40' E 130°25'0 0.0
2014-Jul-25 00:32N 33°40' E 130°25'0 0.0
2014-Jul-24 23:31N 33°40' E 130°25'0 0.2
2014-Jul-24 22:32N 33°39' E 130°24'6 6.4
2014-Jul-24 21:33N 33°39' E 130°17'5 5.2
2014-Jul-24 20:33N 33°44' E 130°15'5 4.6
2014-Jul-24 19:32N 33°48' E 130°11'51212.4
2014-Jul-23 02:17N 34°56' E 119°57'1013.4
2014-Jul-23 01:33N 34°51' E 119°47'1110.7
2014-Jul-23 00:33N 34°46' E 119°35'7 7.2
2014-Jul-22 23:33N 34°45' E 119°26'2 2.2
2014-Jul-22 22:33N 34°45' E 119°24'0 0.0
2014-Jul-22 21:33N 34°45' E 119°24'0 0.0
2014-Jul-22 20:33N 34°45' E 119°24'0 0.0
2014-Jul-22 19:33N 34°45' E 119°24'0 0.0
2014-Jul-22 18:33N 34°45' E 119°24'0 0.0
2014-Jul-22 17:33N 34°45' E 119°24'0 0.0
2014-Jul-22 16:33N 34°45' E 119°24'0 0.0
2014-Jul-22 15:33N 34°45' E 119°24'0 0.0
2014-Jul-22 14:33N 34°45' E 119°24'0 0.2
2014-Jul-22 13:33N 34°45' E 119°24'9 8.5
2014-Jul-22 12:33N 34°46' E 119°34'1110.2
2014-Jul-22 11:26N 34°52' E 119°46'3 1.3
2014-Jul-22 09:21N 34°54' E 119°48'0 0.2
2014-Jul-22 08:33N 34°54' E 119°48'0 0.0
2014-Jul-22 05:33N 34°54' E 119°48'0 0.0
2014-Jul-22 03:21N 34°54' E 119°48'0 0.0
2014-Jul-21 19:33N 34°54' E 119°48'0 0.0
2014-Jul-21 17:15N 34°54' E 119°48'0 0.0
2014-Jul-21 16:09N 34°54' E 119°48'0 0.0
2014-Jul-21 15:27N 34°54' E 119°48'0 0.1
2014-Jul-21 14:27N 34°54' E 119°48'0 0.0
2014-Jul-21 12:33N 34°54' E 119°48'0 0.0
2014-Jul-21 10:09N 34°54' E 119°48'0 0.0
2014-Jul-21 09:15N 34°54' E 119°48'0 0.0
2014-Jul-21 08:33N 34°54' E 119°48'0 0.0
2014-Jul-21 07:33N 34°54' E 119°48'0 0.0
2014-Jul-20 23:21N 34°54' E 119°48'0 0.0
2014-Jul-20 20:33N 34°54' E 119°48'0 0.0
2014-Jul-20 19:33N 34°54' E 119°48'0 0.0
2014-Jul-20 17:33N 34°54' E 119°48'0 0.0
2014-Jul-20 16:21N 34°54' E 119°48'0 0.0
2014-Jul-20 15:33N 34°54' E 119°48'0 0.0
2014-Jul-20 14:33N 34°54' E 119°48'0 0.1
2014-Jul-20 13:33N 34°54' E 119°48'0 0.1
2014-Jul-20 12:33N 34°54' E 119°48'0 0.0
2014-Jul-20 11:15N 34°54' E 119°48'0 0.1
2014-Jul-20 10:21N 34°54' E 119°48'0 0.0
2014-Jul-20 09:27N 34°54' E 119°48'0 0.0
2014-Jul-20 08:21N 34°54' E 119°48'0 0.0
2014-Jul-20 07:33N 34°54' E 119°48'0 0.0
2014-Jul-20 06:15N 34°54' E 119°48'0 0.0
2014-Jul-20 05:33N 34°54' E 119°48'0 0.1
2014-Jul-20 04:33N 34°54' E 119°48'0 0.0
2014-Jul-20 03:21N 34°54' E 119°48'0 0.0
2014-Jul-20 02:33N 34°54' E 119°48'0 0.0
2014-Jul-20 01:15N 34°54' E 119°48'0 0.1
2014-Jul-20 00:27N 34°54' E 119°48'0 0.0
2014-Jul-19 22:33N 34°54' E 119°48'0 0.0
2014-Jul-19 21:09N 34°54' E 119°48'0 0.0
2014-Jul-19 20:27N 34°54' E 119°48'0 0.0
2014-Jul-19 19:33N 34°54' E 119°48'0 0.0
2014-Jul-19 18:33N 34°54' E 119°48'0 0.0
2014-Jul-19 15:33N 34°54' E 119°48'0 0.0
2014-Jul-19 14:33N 34°54' E 119°48'0 0.1
2014-Jul-19 13:33N 34°54' E 119°48'0 0.0
2014-Jul-19 12:33N 34°54' E 119°48'0 0.0
2014-Jul-19 11:21N 34°54' E 119°48'0 0.0
2014-Jul-19 10:15N 34°54' E 119°48'0 0.0
2014-Jul-19 09:33N 34°54' E 119°48'0 0.1
2014-Jul-19 08:33N 34°54' E 119°48'0 0.0
2014-Jul-19 07:21N 34°54' E 119°48'0 0.0
2014-Jul-19 06:33N 34°54' E 119°48'0 0.0
2014-Jul-19 05:33N 34°54' E 119°48'0 0.0
2014-Jul-19 04:27N 34°54' E 119°48'0 0.0
2014-Jul-19 03:33N 34°54' E 119°48'0 0.0
2014-Jul-19 02:33N 34°54' E 119°48'0 0.0
2014-Jul-19 01:33N 34°54' E 119°48'0 0.0
2014-Jul-19 00:27N 34°54' E 119°48'0 0.0
2014-Jul-18 22:33N 34°54' E 119°48'0 0.0
2014-Jul-18 21:09N 34°54' E 119°48'0 0.0
2014-Jul-18 20:26N 34°54' E 119°48'0 0.0
2014-Jul-18 19:26N 34°54' E 119°48'0 0.1
2014-Jul-18 18:32N 34°54' E 119°48'0 0.0
2014-Jul-18 17:27N 34°54' E 119°48'0 0.1
2014-Jul-18 16:27N 34°54' E 119°48'0 0.0
2014-Jul-18 15:32N 34°54' E 119°48'0 0.0
2014-Jul-18 14:33N 34°54' E 119°48'0 0.0
2014-Jul-18 13:33N 34°54' E 119°48'0 0.0
2014-Jul-18 11:27N 34°54' E 119°48'0 0.0
2014-Jul-18 10:21N 34°54' E 119°48'0 0.0
2014-Jul-18 09:32N 34°54' E 119°48'0 0.0
2014-Jul-18 08:26N 34°54' E 119°48'0 0.0
2014-Jul-18 07:20N 34°54' E 119°48'0 0.0
2014-Jul-18 06:32N 34°54' E 119°48'0 0.0
2014-Jul-18 05:08N 34°54' E 119°48'0 0.0
2014-Jul-18 04:20N 34°54' E 119°48'0 0.0
2014-Jul-18 03:32N 34°54' E 119°48'0 0.0
2014-Jul-18 00:21N 34°54' E 119°48'0 0.1
2014-Jul-17 23:21N 34°54' E 119°48'0 0.1
2014-Jul-17 22:27N 34°54' E 119°48'0 0.0
2014-Jul-17 21:33N 34°54' E 119°48'0 0.0
2014-Jul-17 20:32N 34°54' E 119°48'0 0.0
2014-Jul-17 18:20N 34°54' E 119°48'0 0.1
2014-Jul-17 17:20N 34°54' E 119°48'0 0.0
2014-Jul-17 13:27N 34°54' E 119°48'0 0.0
2014-Jul-17 12:27N 34°54' E 119°48'0 0.0
2014-Jul-17 11:33N 34°54' E 119°48'0 0.0
2014-Jul-17 10:33N 34°54' E 119°48'0 0.0
2014-Jul-17 09:33N 34°54' E 119°48'0 0.0
2014-Jul-17 08:27N 34°54' E 119°48'0 0.0
2014-Jul-17 06:32N 34°54' E 119°48'0 0.0
2014-Jul-17 04:11N 34°54' E 119°48'0 0.0
2014-Jul-16 22:33N 34°54' E 119°48'0 0.0
2014-Jul-16 21:27N 34°54' E 119°48'0 0.1
2014-Jul-16 20:14N 34°54' E 119°48'0 0.0
2014-Jul-16 18:26N 34°54' E 119°48'0 0.0
2014-Jul-16 13:21N 34°54' E 119°48'0 0.0
2014-Jul-16 11:21N 34°54' E 119°48'0 0.0
2014-Jul-16 10:33N 34°54' E 119°48'0 0.0
2014-Jul-16 09:26N 34°54' E 119°48'0 0.0
2014-Jul-16 08:33N 34°54' E 119°48'0 0.0
2014-Jul-16 05:32N 34°54' E 119°48'0 0.0
2014-Jul-15 23:08N 34°54' E 119°48'0 0.1
2014-Jul-15 22:32N 34°54' E 119°48'0 0.0
2014-Jul-15 21:32N 34°54' E 119°48'0 0.0
2014-Jul-15 19:32N 34°54' E 119°48'0 0.0
2014-Jul-15 17:20N 34°54' E 119°48'0 0.0
2014-Jul-15 12:20N 34°54' E 119°48'0 0.0
2014-Jul-15 10:32N 34°54' E 119°48'0 0.0
2014-Jul-15 09:32N 34°54' E 119°48'0 0.0
2014-Jul-15 05:32N 34°54' E 119°48'  
Track history (hours):
 
Tides and Currents Weather Stations Pressure Air Temp Water Temp Dewpoint Dewpoint Depression Visibility Wind Speed Wind Dir Waves Ship Positions

Viking Amber

Last reported at 2014-Jul-25 05:08 UTC. Time now 2014-Jul-26 11:13 UTC.
Position N 33°48' E 130°14'.

Length 167 m; draft 7.1 m.

Type: Other ship. MMSI: 563255000.

Date/timePositionNaut miles runAvg speedWind from/ knotsBaromVisibWave heightAir tempDewpointWater temp
2014-Jul-25 05:08N 33°48' E 130°14'813.6
2014-Jul-25 04:34N 33°40' E 130°16'7 6.9
2014-Jul-25 03:32N 33°40' E 130°25'0 0.0
2014-Jul-25 02:32N 33°40' E 130°25'0 0.0
2014-Jul-25 01:32N 33°40' E 130°25'0 0.0
2014-Jul-25 00:32N 33°40' E 130°25'0 0.0
2014-Jul-24 23:31N 33°40' E 130°25'0 0.2
2014-Jul-24 22:32N 33°39' E 130°24'6 6.4
2014-Jul-24 21:33N 33°39' E 130°17'5 5.2
2014-Jul-24 20:33N 33°44' E 130°15'5 4.6
2014-Jul-24 19:32N 33°48' E 130°11'51212.4
2014-Jul-23 02:17N 34°56' E 119°57'1013.4
2014-Jul-23 01:33N 34°51' E 119°47'1110.7
2014-Jul-23 00:33N 34°46' E 119°35'7 7.2
2014-Jul-22 23:33N 34°45' E 119°26'2 2.2
2014-Jul-22 22:33N 34°45' E 119°24'0 0.0
2014-Jul-22 21:33N 34°45' E 119°24'0 0.0
2014-Jul-22 20:33N 34°45' E 119°24'0 0.0
2014-Jul-22 19:33N 34°45' E 119°24'0 0.0
2014-Jul-22 18:33N 34°45' E 119°24'0 0.0
2014-Jul-22 17:33N 34°45' E 119°24'0 0.0
2014-Jul-22 16:33N 34°45' E 119°24'0 0.0
2014-Jul-22 15:33N 34°45' E 119°24'0 0.0
2014-Jul-22 14:33N 34°45' E 119°24'0 0.2
2014-Jul-22 13:33N 34°45' E 119°24'9 8.5
2014-Jul-22 12:33N 34°46' E 119°34'1110.2
2014-Jul-22 11:26N 34°52' E 119°46'3 1.3
2014-Jul-22 09:21N 34°54' E 119°48'0 0.2
2014-Jul-22 08:33N 34°54' E 119°48'0 0.0
2014-Jul-22 05:33N 34°54' E 119°48'0 0.0
2014-Jul-22 03:21N 34°54' E 119°48'0 0.0
2014-Jul-21 19:33N 34°54' E 119°48'0 0.0
2014-Jul-21 17:15N 34°54' E 119°48'0 0.0
2014-Jul-21 16:09N 34°54' E 119°48'0 0.0
2014-Jul-21 15:27N 34°54' E 119°48'0 0.1
2014-Jul-21 14:27N 34°54' E 119°48'0 0.0
2014-Jul-21 12:33N 34°54' E 119°48'0 0.0
2014-Jul-21 10:09N 34°54' E 119°48'0 0.0
2014-Jul-21 09:15N 34°54' E 119°48'0 0.0
2014-Jul-21 08:33N 34°54' E 119°48'0 0.0
2014-Jul-21 07:33N 34°54' E 119°48'0 0.0
2014-Jul-20 23:21N 34°54' E 119°48'0 0.0
2014-Jul-20 20:33N 34°54' E 119°48'0 0.0
2014-Jul-20 19:33N 34°54' E 119°48'0 0.0
2014-Jul-20 17:33N 34°54' E 119°48'0 0.0
2014-Jul-20 16:21N 34°54' E 119°48'0 0.0
2014-Jul-20 15:33N 34°54' E 119°48'0 0.0
2014-Jul-20 14:33N 34°54' E 119°48'0 0.1
2014-Jul-20 13:33N 34°54' E 119°48'0 0.1
2014-Jul-20 12:33N 34°54' E 119°48'0 0.0
2014-Jul-20 11:15N 34°54' E 119°48'0 0.1
2014-Jul-20 10:21N 34°54' E 119°48'0 0.0
2014-Jul-20 09:27N 34°54' E 119°48'0 0.0
2014-Jul-20 08:21N 34°54' E 119°48'0 0.0
2014-Jul-20 07:33N 34°54' E 119°48'0 0.0
2014-Jul-20 06:15N 34°54' E 119°48'0 0.0
2014-Jul-20 05:33N 34°54' E 119°48'0 0.1
2014-Jul-20 04:33N 34°54' E 119°48'0 0.0
2014-Jul-20 03:21N 34°54' E 119°48'0 0.0
2014-Jul-20 02:33N 34°54' E 119°48'0 0.0
2014-Jul-20 01:15N 34°54' E 119°48'0 0.1
2014-Jul-20 00:27N 34°54' E 119°48'0 0.0
2014-Jul-19 22:33N 34°54' E 119°48'0 0.0
2014-Jul-19 21:09N 34°54' E 119°48'0 0.0
2014-Jul-19 20:27N 34°54' E 119°48'0 0.0
2014-Jul-19 19:33N 34°54' E 119°48'0 0.0
2014-Jul-19 18:33N 34°54' E 119°48'0 0.0
2014-Jul-19 15:33N 34°54' E 119°48'0 0.0
2014-Jul-19 14:33N 34°54' E 119°48'0 0.1
2014-Jul-19 13:33N 34°54' E 119°48'0 0.0
2014-Jul-19 12:33N 34°54' E 119°48'0 0.0
2014-Jul-19 11:21N 34°54' E 119°48'0 0.0
2014-Jul-19 10:15N 34°54' E 119°48'0 0.0
2014-Jul-19 09:33N 34°54' E 119°48'0 0.1
2014-Jul-19 08:33N 34°54' E 119°48'0 0.0
2014-Jul-19 07:21N 34°54' E 119°48'0 0.0
2014-Jul-19 06:33N 34°54' E 119°48'0 0.0
2014-Jul-19 05:33N 34°54' E 119°48'0 0.0
2014-Jul-19 04:27N 34°54' E 119°48'0 0.0
2014-Jul-19 03:33N 34°54' E 119°48'0 0.0
2014-Jul-19 02:33N 34°54' E 119°48'0 0.0
2014-Jul-19 01:33N 34°54' E 119°48'0 0.0
2014-Jul-19 00:27N 34°54' E 119°48'0 0.0
2014-Jul-18 22:33N 34°54' E 119°48'0 0.0
2014-Jul-18 21:09N 34°54' E 119°48'0 0.0
2014-Jul-18 20:26N 34°54' E 119°48'0 0.0
2014-Jul-18 19:26N 34°54' E 119°48'0 0.1
2014-Jul-18 18:32N 34°54' E 119°48'0 0.0
2014-Jul-18 17:27N 34°54' E 119°48'0 0.1
2014-Jul-18 16:27N 34°54' E 119°48'0 0.0
2014-Jul-18 15:32N 34°54' E 119°48'0 0.0
2014-Jul-18 14:33N 34°54' E 119°48'0 0.0
2014-Jul-18 13:33N 34°54' E 119°48'0 0.0
2014-Jul-18 11:27N 34°54' E 119°48'0 0.0
2014-Jul-18 10:21N 34°54' E 119°48'0 0.0
2014-Jul-18 09:32N 34°54' E 119°48'0 0.0
2014-Jul-18 08:26N 34°54' E 119°48'0 0.0
2014-Jul-18 07:20N 34°54' E 119°48'0 0.0
2014-Jul-18 06:32N 34°54' E 119°48'0 0.0
2014-Jul-18 05:08N 34°54' E 119°48'0 0.0
2014-Jul-18 04:20N 34°54' E 119°48'0 0.0
2014-Jul-18 03:32N 34°54' E 119°48'0 0.0
2014-Jul-18 00:21N 34°54' E 119°48'0 0.1
2014-Jul-17 23:21N 34°54' E 119°48'0 0.1
2014-Jul-17 22:27N 34°54' E 119°48'0 0.0
2014-Jul-17 21:33N 34°54' E 119°48'0 0.0
2014-Jul-17 20:32N 34°54' E 119°48'0 0.0
2014-Jul-17 18:20N 34°54' E 119°48'0 0.1
2014-Jul-17 17:20N 34°54' E 119°48'0 0.0
2014-Jul-17 13:27N 34°54' E 119°48'0 0.0
2014-Jul-17 12:27N 34°54' E 119°48'0 0.0
2014-Jul-17 11:33N 34°54' E 119°48'0 0.0
2014-Jul-17 10:33N 34°54' E 119°48'0 0.0
2014-Jul-17 09:33N 34°54' E 119°48'0 0.0
2014-Jul-17 08:27N 34°54' E 119°48'0 0.0
2014-Jul-17 06:32N 34°54' E 119°48'0 0.0
2014-Jul-17 04:11N 34°54' E 119°48'0 0.0
2014-Jul-16 22:33N 34°54' E 119°48'0 0.0
2014-Jul-16 21:27N 34°54' E 119°48'0 0.1
2014-Jul-16 20:14N 34°54' E 119°48'0 0.0
2014-Jul-16 18:26N 34°54' E 119°48'0 0.0
2014-Jul-16 13:21N 34°54' E 119°48'0 0.0
2014-Jul-16 11:21N 34°54' E 119°48'0 0.0
2014-Jul-16 10:33N 34°54' E 119°48'0 0.0
2014-Jul-16 09:26N 34°54' E 119°48'0 0.0
2014-Jul-16 08:33N 34°54' E 119°48'0 0.0
2014-Jul-16 05:32N 34°54' E 119°48'0 0.0
2014-Jul-15 23:08N 34°54' E 119°48'0 0.1
2014-Jul-15 22:32N 34°54' E 119°48'0 0.0
2014-Jul-15 21:32N 34°54' E 119°48'0 0.0
2014-Jul-15 19:32N 34°54' E 119°48'0 0.0
2014-Jul-15 17:20N 34°54' E 119°48'0 0.0
2014-Jul-15 12:20N 34°54' E 119°48'0 0.0
2014-Jul-15 10:32N 34°54' E 119°48'0 0.0
2014-Jul-15 09:32N 34°54' E 119°48'0 0.0
2014-Jul-15 05:32N 34°54' E 119°48'  

Dump ship's entire track history